Time;durP1;ratioP1;P1;durP2;ratioP2;P2;SDS_P1;SDS_P2;PMS_P1;PMS_P2;Temp;Humidity;BMP_temperature;BMP_pressure;BME280_temperature;BME280_humidity;BME280_pressure;Samples;Min_cycle;Max_cycle;Signal;HPM_P1;HPM_P2
2022/09/26 00:01:41;;;;;;;2.92;1.00;;;;;;;10.72;100.00;100701.50;4875417;29;20532;-78
2022/09/26 00:04:22;;;;;;;5.95;1.77;;;;;;;10.71;100.00;100692.69;4892844;29;20126;-78
2022/09/26 00:06:55;;;;;;;2.55;1.20;;;;;;;10.70;100.00;100687.44;4901897;29;20052;-78
2022/09/26 00:09:26;;;;;;;6.60;1.05;;;;;;;10.69;100.00;100676.00;4881079;29;20353;-78
2022/09/26 00:11:55;;;;;;;;;;;;;;;10.70;100.00;100676.91;4891885;29;20079;-78
2022/09/26 00:14:26;;;;;;;3.28;1.30;;;;;;;10.71;100.00;100670.72;4881684;29;19949;-79
2022/09/26 00:16:56;;;;;;;3.58;1.40;;;;;;;10.70;100.00;100659.31;4882142;29;20857;-78
2022/09/26 00:19:25;;;;;;;5.17;1.63;;;;;;;10.70;100.00;100661.94;4900684;29;20036;-77
2022/09/26 00:21:53;;;;;;;3.78;1.20;;;;;;;10.70;100.00;100653.19;4912837;29;20292;-77
2022/09/26 00:24:22;;;;;;;2.63;1.17;;;;;;;10.72;100.00;100646.16;4881593;29;20052;-77
2022/09/26 00:26:50;;;;;;;2.15;1.20;;;;;;;10.74;100.00;100639.13;4887439;29;20398;-78
2022/09/26 00:29:19;;;;;;;3.22;1.38;;;;;;;10.75;100.00;100630.31;4862294;29;20401;-79
2022/09/26 00:31:48;;;;;;;3.22;1.35;;;;;;;10.77;100.00;100628.56;4852028;29;20413;-78
2022/09/26 00:34:18;;;;;;;4.75;1.63;;;;;;;10.79;100.00;100626.78;4862152;29;20063;-78
2022/09/26 00:36:48;;;;;;;5.70;1.33;;;;;;;10.80;100.00;100618.00;4877510;29;20056;-78
2022/09/26 00:39:17;;;;;;;2.50;1.23;;;;;;;10.81;100.00;100609.25;4844006;29;20468;-78
2022/09/26 00:41:46;;;;;;;3.83;1.58;;;;;;;10.83;100.00;100602.22;4856173;29;20525;-78
2022/09/26 00:44:33;;;;;;;3.22;1.30;;;;;;;10.85;100.00;100589.00;4852797;29;20044;-79
2022/09/26 00:47:03;;;;;;;6.07;1.42;;;;;;;10.86;100.00;100596.03;4856983;29;20544;-79
2022/09/26 00:49:39;;;;;;;4.10;1.63;;;;;;;10.88;100.00;100596.91;4869174;29;20036;-78
2022/09/26 00:52:10;;;;;;;2.67;1.65;;;;;;;10.89;100.00;100590.78;4890907;29;20064;-79
2022/09/26 00:54:44;;;;;;;3.72;1.17;;;;;;;10.88;100.00;100575.81;4870630;29;24482;-78
2022/09/26 00:57:22;;;;;;;2.83;1.50;;;;;;;10.88;100.00;100568.78;4908104;29;20056;-78
2022/09/26 00:59:59;;;;;;;4.95;1.40;;;;;;;10.88;100.00;100563.50;4893990;29;20227;-78
2022/09/26 01:02:28;;;;;;;3.78;1.48;;;;;;;10.87;100.00;100556.50;4880394;29;20242;-78
2022/09/26 01:04:58;;;;;;;6.67;1.47;;;;;;;10.86;100.00;100549.47;4888452;29;20253;-78
2022/09/26 01:07:28;;;;;;;3.55;1.67;;;;;;;10.86;100.00;100541.56;4875703;29;20051;-78
2022/09/26 01:09:58;;;;;;;1.88;1.67;;;;;;;10.85;100.00;100531.91;4895091;29;20389;-79
2022/09/26 01:12:26;;;;;;;6.35;1.98;;;;;;;10.84;100.00;100524.88;4893686;29;20279;-77
2022/09/26 01:14:57;;;;;;;5.50;2.03;;;;;;;10.83;100.00;100522.22;4890306;29;20040;-78
2022/09/26 01:17:26;;;;;;;4.00;2.00;;;;;;;10.81;100.00;100522.25;4855442;29;20048;-78
2022/09/26 01:19:54;;;;;;;6.07;2.30;;;;;;;10.79;100.00;100510.81;4867828;29;20556;-79
2022/09/26 01:22:39;;;;;;;4.68;2.25;;;;;;;10.77;100.00;100515.22;4883359;29;20062;-79
2022/09/26 01:25:45;;;;;;;3.10;1.75;;;;;;;10.75;100.00;100503.81;4909353;29;20405;-78
2022/09/26 01:28:52;;;;;;;5.43;1.83;;;;;;;10.75;100.00;100506.44;4886268;29;20048;-78
2022/09/26 01:31:27;;;;;;;8.38;2.33;;;;;;;10.75;100.00;100510.84;4906072;29;20052;-78
2022/09/26 01:34:25;;;;;;;4.68;2.20;;;;;;;10.75;100.00;100503.81;4862946;29;20059;-77
2022/09/26 01:37:26;;;;;;;3.97;2.08;;;;;;;10.74;100.00;100499.44;4886145;29;20036;-77
2022/09/26 01:40:30;;;;;;;;;;;;;;;10.73;100.00;100498.53;4877523;29;20048;-78
2022/09/26 01:43:14;;;;;;;4.15;1.80;;;;;;;10.72;100.00;100494.16;4841298;29;20405;-78
2022/09/26 01:45:49;;;;;;;6.05;2.30;;;;;;;10.73;100.00;100489.75;4877769;29;20498;-78
2022/09/26 01:48:35;;;;;;;4.75;2.42;;;;;;;10.73;100.00;100484.50;4865798;29;20040;-79
2022/09/26 01:51:20;;;;;;;4.80;2.42;;;;;;;10.72;100.00;100482.75;4870654;29;20036;-79
2022/09/26 01:54:05;;;;;;;4.72;2.05;;;;;;;10.73;100.00;100468.69;4878245;29;20406;-78
2022/09/26 01:56:37;;;;;;;3.05;1.85;;;;;;;10.72;100.00;100467.81;4892772;29;20048;-78
2022/09/26 01:59:15;;;;;;;4.70;2.22;;;;;;;10.73;100.00;100458.13;4881987;29;20047;-78
2022/09/26 02:01:51;;;;;;;6.25;2.00;;;;;;;10.71;100.00;100466.03;4862756;29;20067;-78
2022/09/26 02:04:29;;;;;;;2.50;2.17;;;;;;;10.70;100.00;100453.75;4863745;29;20414;-78
2022/09/26 02:06:57;;;;;;;9.85;2.63;;;;;;;10.70;100.00;100455.53;4886960;29;20494;-78
2022/09/26 02:09:39;;;;;;;6.72;2.60;;;;;;;10.72;100.00;100445.84;4890413;29;20240;-78
2022/09/26 02:12:16;;;;;;;7.13;2.45;;;;;;;10.73;100.00;100456.38;4874476;29;20058;-79
2022/09/26 02:14:47;;;;;;;5.53;1.85;;;;;;;10.72;100.00;100441.44;4896890;29;20048;-77
2022/09/26 02:17:21;;;;;;;4.78;1.80;;;;;;;10.73;100.00;100437.91;4900815;29;20063;-78
2022/09/26 02:19:58;;;;;;;6.10;2.00;;;;;;;10.75;100.00;100430.00;4868452;29;20047;-78
2022/09/26 02:22:33;;;;;;;3.40;1.83;;;;;;;10.76;100.00;100442.31;4873280;29;20537;-79
2022/09/26 02:25:03;;;;;;;7.28;2.25;;;;;;;10.75;100.00;100437.91;4898165;29;20386;-78
2022/09/26 02:27:33;;;;;;;5.28;2.30;;;;;;;10.74;100.00;100428.28;4894791;29;20613;-79
2022/09/26 02:30:04;;;;;;;3.10;1.73;;;;;;;10.74;100.00;100428.28;4887140;29;20044;-79
2022/09/26 02:32:33;;;;;;;3.50;1.75;;;;;;;10.73;100.00;100424.75;4890679;29;20695;-78
2022/09/26 02:37:53;;;;;;;3.85;2.05;;;;;;;10.72;100.00;100419.50;4896963;29;20044;-78
2022/09/26 02:40:31;;;;;;;5.15;1.95;;;;;;;10.67;100.00;100411.59;4856028;29;20067;-78
2022/09/26 02:43:36;;;;;;;3.40;1.95;;;;;;;10.65;100.00;100409.88;4896618;29;20606;-78
2022/09/26 02:46:37;;;;;;;6.38;1.90;;;;;;;10.66;100.00;100398.41;4882467;29;20525;-78
2022/09/26 02:49:16;;;;;;;;;;;;;;;10.62;100.00;100396.69;4883789;29;20063;-78
2022/09/26 02:52:12;;;;;;;3.50;2.17;;;;;;;10.60;100.00;100395.81;4854079;29;19923;-78
2022/09/26 02:54:53;;;;;;;2.83;1.80;;;;;;;10.59;100.00;100392.31;4863170;29;20055;-78
2022/09/26 02:57:43;;;;;;;6.43;2.47;;;;;;;10.59;100.00;100388.81;4897718;29;20378;-78
2022/09/26 03:00:19;;;;;;;2.83;2.05;;;;;;;10.56;100.00;100379.16;4886453;29;20040;-78
2022/09/26 03:03:10;;;;;;;4.82;2.42;;;;;;;10.55;100.00;100372.16;4888415;29;20286;-78
2022/09/26 03:05:43;;;;;;;5.80;2.35;;;;;;;10.54;100.00;100367.75;4874756;29;20051;-79
2022/09/26 03:08:25;;;;;;;3.25;2.67;;;;;;;10.52;100.00;100356.34;4881643;29;20036;-77
2022/09/26 03:10:58;;;;;;;4.78;2.70;;;;;;;10.51;100.00;100352.84;4903689;29;20048;-79
2022/09/26 03:13:32;;;;;;;6.85;2.65;;;;;;;10.50;100.00;100350.19;4880974;29;20043;-79
2022/09/26 03:16:00;;;;;;;4.35;2.92;;;;;;;10.49;100.00;100340.53;4867632;29;20040;-78
2022/09/26 03:19:03;;;;;;;3.90;2.40;;;;;;;10.47;100.00;100335.31;4864129;29;20052;-79
2022/09/26 03:21:33;;;;;;;7.80;3.30;;;;;;;10.47;100.00;100330.03;4837162;29;20060;-77
2022/09/26 03:24:05;;;;;;;5.82;2.88;;;;;;;10.47;100.00;100327.41;4861651;29;20054;-78
2022/09/26 03:26:35;;;;;;;6.30;2.80;;;;;;;10.46;100.00;100317.72;4888730;29;20044;-79
2022/09/26 03:29:03;;;;;;;8.18;3.53;;;;;;;10.46;100.00;100315.09;4880333;29;20048;-78
2022/09/26 03:31:35;;;;;;;6.45;3.40;;;;;;;10.45;100.00;100308.09;4885222;29;20036;-78
2022/09/26 03:34:06;;;;;;;7.28;3.20;;;;;;;10.45;100.00;100305.47;4876334;29;20047;-78
2022/09/26 03:36:35;;;;;;;6.15;3.22;;;;;;;10.43;100.00;100304.56;4866870;29;20048;-78
2022/09/26 03:39:04;;;;;;;2.92;2.70;;;;;;;10.42;100.00;100297.56;4871029;29;20044;-79
2022/09/26 03:41:40;;;;;;;6.43;3.35;;;;;;;10.43;100.00;100301.94;4883374;29;20033;-78
2022/09/26 03:44:21;;;;;;;6.55;3.22;;;;;;;10.44;100.00;100295.78;4864562;29;20390;-78
2022/09/26 03:47:04;;;;;;;8.75;2.83;;;;;;;10.41;100.00;100295.78;4900214;29;20052;-78
2022/09/26 03:49:39;;;;;;;6.78;3.60;;;;;;;10.41;100.00;100285.25;4847207;29;20044;-79
2022/09/26 03:52:11;;;;;;;8.98;4.72;;;;;;;10.41;100.00;100280.00;4878250;29;20044;-78
2022/09/26 03:54:40;;;;;;;7.28;3.85;;;;;;;10.40;100.00;100274.75;4861216;29;20048;-78
2022/09/26 03:57:13;;;;;;;7.07;4.20;;;;;;;10.39;100.00;100268.59;4867007;29;20424;-78
2022/09/26 03:59:48;;;;;;;8.18;3.90;;;;;;;10.37;100.00;100267.72;4890483;29;20055;-79
2022/09/26 04:02:19;;;;;;;7.75;4.70;;;;;;;10.36;100.00;100266.00;4818521;29;24009;-79
2022/09/26 04:04:54;;;;;;;5.88;4.30;;;;;;;10.37;100.00;100261.59;4879293;29;20520;-79
2022/09/26 04:07:22;;;;;;;7.60;4.40;;;;;;;10.37;100.00;100248.41;4866571;29;20230;-78
2022/09/26 04:09:51;;;;;;;7.95;4.22;;;;;;;10.34;100.00;100239.66;4833492;29;20048;-80
2022/09/26 04:12:20;;;;;;;9.32;4.30;;;;;;;10.34;100.00;100236.16;4869830;29;20059;-78
2022/09/26 04:14:48;;;;;;;7.90;4.07;;;;;;;10.33;100.00;100224.72;4878672;29;20048;-78
2022/09/26 04:17:17;;;;;;;6.75;3.75;;;;;;;10.33;100.00;100218.59;4856608;29;20055;-78
2022/09/26 04:19:50;;;;;;;;;;;;;;;10.32;100.00;100211.56;4895644;29;20055;-78
2022/09/26 04:22:18;;;;;;;7.45;4.25;;;;;;;10.30;100.00;100210.66;4865512;29;20182;-77
2022/09/26 04:24:48;;;;;;;4.30;3.90;;;;;;;10.30;100.00;100206.31;4854041;29;20414;-78
2022/09/26 04:27:17;;;;;;;10.13;4.65;;;;;;;10.29;100.00;100193.13;4868617;29;20458;-78
2022/09/26 04:29:47;;;;;;;6.22;4.28;;;;;;;10.29;100.00;100194.00;4865099;29;20048;-79
2022/09/26 04:32:38;;;;;;;7.45;4.90;;;;;;;10.28;100.00;100171.19;4882431;29;20052;-78
2022/09/26 04:35:27;;;;;;;11.77;5.15;;;;;;;10.27;100.00;100174.69;4892942;29;20071;-79
2022/09/26 04:37:56;;;;;;;8.40;5.10;;;;;;;10.28;100.00;100175.56;4879783;29;20060;-78
2022/09/26 04:40:25;;;;;;;11.13;5.72;;;;;;;10.28;100.00;100165.03;4837448;29;20048;-77
2022/09/26 04:43:07;;;;;;;8.77;5.05;;;;;;;10.29;100.00;100161.53;4883694;29;20308;-79
2022/09/26 04:45:35;;;;;;;12.23;6.78;;;;;;;10.28;100.00;100143.97;4891545;29;20043;-78
2022/09/26 04:48:04;;;;;;;7.10;5.38;;;;;;;10.30;100.00;100142.19;4864485;29;20056;-78
2022/09/26 04:50:51;;;;;;;6.55;5.68;;;;;;;10.29;100.00;100138.69;4884428;29;20055;-79
2022/09/26 04:53:20;;;;;;;5.60;5.03;;;;;;;10.30;100.00;100137.84;4849421;29;20059;-78
2022/09/26 04:56:01;;;;;;;8.27;5.25;;;;;;;10.30;100.00;100126.41;4861196;29;20039;-82
2022/09/26 04:58:31;;;;;;;7.07;5.20;;;;;;;10.30;100.00;100121.13;4894342;29;20044;-80
2022/09/26 05:01:07;;;;;;;6.47;4.65;;;;;;;10.29;100.00;100104.47;4835254;29;20055;-79
2022/09/26 05:03:50;;;;;;;7.95;5.18;;;;;;;10.27;100.00;100114.13;4885646;29;20044;-79
2022/09/26 05:06:19;;;;;;;10.60;5.38;;;;;;;10.26;100.00;100108.88;4861392;29;20567;-79
2022/09/26 05:08:47;;;;;;;7.38;5.78;;;;;;;10.25;100.00;100099.25;4886301;29;20501;-79
2022/09/26 05:11:20;;;;;;;5.75;4.90;;;;;;;10.26;100.00;100098.34;4866914;29;20247;-80
2022/09/26 05:13:50;;;;;;;9.90;5.20;;;;;;;10.25;100.00;100097.47;4835891;29;20833;-80
2022/09/26 05:16:22;;;;;;;8.32;5.40;;;;;;;10.24;100.00;100100.97;4865144;29;20248;-78
2022/09/26 05:18:55;;;;;;;7.45;5.07;;;;;;;10.24;100.00;100097.47;4866291;29;20524;-79
2022/09/26 05:21:25;;;;;;;10.55;6.00;;;;;;;10.22;100.00;100084.31;4864061;29;20048;-79
2022/09/26 05:26:51;;;;;;;6.93;4.57;;;;;;;10.21;100.00;100079.06;4885717;29;20044;-79
2022/09/26 05:29:21;;;;;;;12.50;5.90;;;;;;;10.22;100.00;100079.06;4847538;29;20248;-80
2022/09/26 05:31:57;;;;;;;6.53;4.75;;;;;;;10.22;100.00;100075.56;4866569;29;20421;-79
2022/09/26 05:34:28;;;;;;;5.72;4.78;;;;;;;10.21;100.00;100069.44;4860344;29;20051;-80
2022/09/26 05:36:58;;;;;;;6.35;5.05;;;;;;;10.23;100.00;100070.28;4862001;29;20047;-80
2022/09/26 05:42:14;;;;;;;8.27;4.82;;;;;;;10.21;100.00;100058.88;4860949;29;20452;-78
2022/09/26 05:44:43;;;;;;;8.68;5.20;;;;;;;10.20;100.00;100062.41;4895617;29;20055;-78
2022/09/26 05:47:12;;;;;;;12.35;5.47;;;;;;;10.21;100.00;100052.72;4849097;29;20248;-78
2022/09/26 05:49:40;;;;;;;7.38;5.53;;;;;;;10.22;100.00;100051.84;4873981;29;20047;-78
2022/09/26 05:52:13;;;;;;;7.63;5.60;;;;;;;10.22;100.00;100041.31;4882222;29;20393;-78
2022/09/26 05:54:41;;;;;;;6.72;5.80;;;;;;;10.22;100.00;100043.97;4878663;29;20521;-78
2022/09/26 05:57:36;;;;;;;7.65;5.93;;;;;;;10.21;100.00;100048.38;4887987;29;20501;-78
2022/09/26 06:00:06;;;;;;;9.55;5.97;;;;;;;10.21;100.00;100040.47;4849667;29;20379;-78
2022/09/26 06:02:54;;;;;;;10.50;5.93;;;;;;;10.24;100.00;100044.81;4904466;29;20070;-77
2022/09/26 06:05:32;;;;;;;8.93;6.18;;;;;;;10.24;100.00;100045.69;4896334;29;20056;-78
2022/09/26 06:08:16;;;;;;;8.23;5.45;;;;;;;10.22;100.00;100021.13;4852967;29;20048;-78
2022/09/26 06:11:07;;;;;;;6.28;5.68;;;;;;;10.23;100.00;100032.56;4870205;29;20179;-78
2022/09/26 06:13:36;;;;;;;8.90;6.43;;;;;;;10.24;100.00;100026.38;4885352;29;20033;-77
2022/09/26 06:16:07;;;;;;;8.80;6.00;;;;;;;10.25;100.00;100020.25;4844118;29;20416;-77
2022/09/26 06:18:37;;;;;;;8.63;6.43;;;;;;;10.26;100.00;100014.06;4878877;29;20511;-77
2022/09/26 06:21:08;;;;;;;7.35;6.47;;;;;;;10.26;100.00;100019.34;4872631;29;20032;-77
2022/09/26 06:23:38;;;;;;;11.27;6.60;;;;;;;10.27;100.00;100011.44;4877598;29;20044;-78
2022/09/26 06:26:13;;;;;;;7.07;6.35;;;;;;;10.27;100.00;100010.56;4890634;29;20063;-77
2022/09/26 06:28:42;;;;;;;11.15;6.60;;;;;;;10.27;100.00;100015.84;4882002;29;20398;-78
2022/09/26 06:31:13;;;;;;;10.90;6.40;;;;;;;10.27;100.00;100007.94;4868098;29;20051;-77
2022/09/26 06:34:00;;;;;;;7.05;6.38;;;;;;;10.28;100.00;100004.41;4885945;29;20056;-77
2022/09/26 06:36:42;;;;;;;7.82;6.88;;;;;;;10.30;100.00;99997.34;4873497;29;20605;-78
2022/09/26 06:39:11;;;;;;;12.10;6.70;;;;;;;10.27;100.00;99984.25;4872439;29;20418;-77
2022/09/26 06:41:40;;;;;;;10.13;7.20;;;;;;;10.26;100.00;99987.75;4898586;29;20044;-77
2022/09/26 06:44:27;;;;;;;7.60;6.32;;;;;;;10.24;100.00;99987.75;4859880;29;20049;-78
2022/09/26 06:47:21;;;;;;;10.80;6.28;;;;;;;10.24;100.00;99981.63;4882412;29;20043;-77
2022/09/26 06:49:53;;;;;;;6.60;5.90;;;;;;;10.21;100.00;99972.00;4881846;29;20272;-77
2022/09/26 06:52:26;;;;;;;10.88;5.63;;;;;;;10.19;100.00;99968.50;4860063;29;22154;-79
2022/09/26 06:54:55;;;;;;;12.18;5.60;;;;;;;10.20;100.00;99974.66;4883864;29;20059;-79
2022/09/26 06:57:23;;;;;;;9.45;5.20;;;;;;;10.19;100.00;99975.53;4889817;29;20513;-76
2022/09/26 06:59:52;;;;;;;9.88;6.10;;;;;;;10.19;100.00;99975.53;4868065;29;20355;-76
2022/09/26 07:02:52;;;;;;;8.23;6.38;;;;;;;10.19;100.00;99965.88;4867919;29;20052;-78
2022/09/26 07:05:33;;;;;;;10.05;6.13;;;;;;;10.18;100.00;99956.22;4871305;29;20043;-77
2022/09/26 07:08:02;;;;;;;9.32;5.53;;;;;;;10.18;100.00;99953.59;4855711;29;20052;-78
2022/09/26 07:10:33;;;;;;;7.20;5.55;;;;;;;10.16;100.00;99952.75;4877402;29;20048;-77
2022/09/26 07:13:09;;;;;;;8.55;5.43;;;;;;;10.15;100.00;99948.34;4888231;29;20052;-76
2022/09/26 07:15:38;;;;;;;9.77;5.80;;;;;;;10.14;100.00;99942.22;4882519;29;20075;-77
2022/09/26 07:18:23;;;;;;;6.93;5.90;;;;;;;10.14;100.00;99936.09;4873974;29;20055;-77
2022/09/26 07:21:04;;;;;;;12.38;5.47;;;;;;;10.14;100.00;99933.44;4878189;29;20126;-76
2022/09/26 07:23:48;;;;;;;6.55;5.57;;;;;;;10.16;100.00;99934.31;4872366;29;20059;-76
2022/09/26 07:26:19;;;;;;;8.05;5.55;;;;;;;10.16;100.00;99926.41;4878865;29;20044;-79
2022/09/26 07:28:47;;;;;;;13.07;5.57;;;;;;;10.14;100.00;99918.53;4871340;29;20156;-78
2022/09/26 07:31:22;;;;;;;7.22;5.55;;;;;;;10.15;100.00;99911.50;4866302;29;20379;-78
2022/09/26 07:34:07;;;;;;;8.23;5.05;;;;;;;10.17;100.00;99908.84;4874738;29;20036;-77
2022/09/26 07:36:39;;;;;;;8.75;5.32;;;;;;;10.18;100.00;99913.25;4872311;29;20051;-78
2022/09/26 07:39:10;;;;;;;8.10;4.45;;;;;;;10.21;100.00;99898.28;4868212;29;20498;-78
2022/09/26 07:41:41;;;;;;;9.70;5.30;;;;;;;10.22;100.00;99901.78;4868926;29;20528;-79
2022/09/26 07:44:10;;;;;;;5.40;4.85;;;;;;;10.25;100.00;99897.34;4868989;29;20040;-77
2022/09/26 07:53:11;;;;;;;6.30;4.90;;;;;;;10.37;100.00;99892.88;4878536;29;20052;-78
2022/09/26 07:56:09;;;;;;;6.30;4.30;;;;;;;10.39;100.00;99878.78;4867508;29;20509;-77
2022/09/26 07:59:04;;;;;;;4.55;4.15;;;;;;;10.44;100.00;99886.66;4891448;29;20040;-77
2022/09/26 08:01:47;;;;;;;4.57;4.05;;;;;;;10.45;100.00;99878.75;4856975;29;20354;-76
2022/09/26 08:04:45;;;;;;;4.75;4.20;;;;;;;10.47;100.00;99874.34;4843680;29;20266;-77
2022/09/26 08:07:15;;;;;;;6.55;4.40;;;;;;;10.49;100.00;99875.19;4885349;29;20079;-77
2022/09/26 08:09:53;;;;;;;4.78;3.80;;;;;;;10.50;100.00;99886.56;4854770;29;20048;-78
2022/09/26 08:12:44;;;;;;;4.45;3.88;;;;;;;10.50;100.00;99865.50;4867217;29;20052;-78
2022/09/26 08:15:32;;;;;;;7.68;4.65;;;;;;;10.48;100.00;99864.66;4879321;29;20402;-79
2022/09/26 08:18:05;;;;;;;9.68;4.05;;;;;;;10.49;100.00;99863.75;4877120;29;20047;-78
2022/09/26 08:20:34;;;;;;;6.15;3.90;;;;;;;10.49;100.00;99856.75;4852849;29;20047;-79
2022/09/26 08:23:03;;;;;;;5.55;3.85;;;;;;;10.52;100.00;99855.81;4850919;29;20053;-76
2022/09/26 08:25:31;;;;;;;7.15;3.80;;;;;;;10.52;100.00;99851.41;4878867;29;20041;-78
2022/09/26 08:28:12;;;;;;;;;;;;;;;10.53;100.00;99834.72;4833148;29;20060;-77
2022/09/26 08:30:43;;;;;;;6.03;4.13;;;;;;;10.53;100.00;99837.38;4878819;29;20305;-77
2022/09/26 08:33:13;;;;;;;;;;;;;;;10.56;100.00;99838.22;4874298;29;20051;-78
2022/09/26 08:35:41;;;;;;;7.15;4.38;;;;;;;10.59;100.00;99835.56;4863817;29;24304;-77
2022/09/26 08:38:21;;;;;;;4.47;3.53;;;;;;;10.60;100.00;99830.25;4865861;29;20044;-77
2022/09/26 08:41:43;;;;;;;4.13;3.10;;;;;;;10.61;100.00;99821.47;4864965;29;20044;-77
2022/09/26 08:44:57;;;;;;;4.43;3.42;;;;;;;10.62;100.00;99815.28;4872034;29;20264;-78
2022/09/26 08:47:47;;;;;;;4.50;3.72;;;;;;;10.63;100.00;99810.91;4881225;29;20052;-77
2022/09/26 08:50:37;;;;;;;5.03;3.10;;;;;;;10.65;100.00;99817.03;4870176;29;20044;-77
2022/09/26 08:53:15;;;;;;;5.68;3.13;;;;;;;10.65;100.00;99807.34;4864847;29;20448;-77
2022/09/26 08:55:52;;;;;;;6.88;3.50;;;;;;;10.65;100.00;99807.34;4879981;29;20051;-77
2022/09/26 08:58:29;;;;;;;5.50;2.70;;;;;;;10.69;100.00;99802.91;4882357;29;20036;-77
2022/09/26 09:01:10;;;;;;;4.90;3.00;;;;;;;10.72;100.00;99805.50;4885921;29;20048;-77
2022/09/26 09:04:06;;;;;;;6.65;2.90;;;;;;;10.73;100.00;99815.16;4889564;29;20094;-77
2022/09/26 09:06:36;;;;;;;5.75;3.13;;;;;;;10.77;100.00;99810.72;4880783;29;20315;-78
2022/09/26 09:09:05;;;;;;;6.38;2.70;;;;;;;10.78;100.00;99808.06;4853517;29;20048;-78
2022/09/26 09:12:12;;;;;;;5.10;2.92;;;;;;;10.81;100.00;99808.03;4872834;29;20048;-77
2022/09/26 09:15:05;;;;;;;5.72;3.17;;;;;;;10.82;100.00;99816.78;4896718;29;20159;-77
2022/09/26 09:18:50;;;;;;;8.18;3.35;;;;;;;10.81;100.00;99813.28;4894985;29;20047;-77
2022/09/26 09:21:44;;;;;;;3.63;3.28;;;;;;;10.85;100.00;99803.56;4860494;29;20044;-77
2022/09/26 09:25:11;;;;;;;5.57;3.40;;;;;;;10.85;100.00;99793.00;4862799;29;20047;-77
2022/09/26 09:27:49;;;;;;;5.63;3.50;;;;;;;10.84;100.00;99786.88;4855422;29;20654;-77
2022/09/26 09:30:35;;;;;;;5.72;3.50;;;;;;;10.84;100.00;99791.28;4877847;29;20516;-77
2022/09/26 09:33:48;;;;;;;16.08;3.75;;;;;;;10.84;100.00;99781.59;4872801;29;20052;-77
2022/09/26 09:36:49;;;;;;;12.13;4.88;;;;;;;10.87;100.00;99772.81;4862491;29;20036;-77
2022/09/26 09:39:35;;;;;;;4.55;3.40;;;;;;;10.86;100.00;99777.19;4865039;29;20064;-77
2022/09/26 09:42:34;;;;;;;4.82;3.10;;;;;;;10.87;100.00;99772.81;4877312;29;20040;-77
2022/09/26 09:45:08;;;;;;;6.50;3.78;;;;;;;10.87;100.00;99770.16;4906536;29;20048;-77
2022/09/26 09:47:38;;;;;;;7.93;3.65;;;;;;;10.86;100.00;99763.13;4892206;29;20059;-77
2022/09/26 09:50:30;;;;;;;5.72;3.72;;;;;;;10.88;100.00;99756.06;4882717;29;20040;-77
2022/09/26 09:53:12;;;;;;;6.25;3.55;;;;;;;10.87;100.00;99755.22;4890723;29;20052;-78
2022/09/26 09:56:06;;;;;;;6.80;4.00;;;;;;;10.87;100.00;99746.44;4840695;29;20251;-78
2022/09/26 09:58:39;;;;;;;6.13;3.58;;;;;;;10.85;100.00;99738.56;4863411;29;20167;-77
2022/09/26 10:01:24;;;;;;;6.68;3.95;;;;;;;10.84;100.00;99744.72;4901677;29;20521;-77
2022/09/26 10:04:31;;;;;;;5.88;4.13;;;;;;;10.82;100.00;99732.47;4878985;29;20056;-78
2022/09/26 10:07:00;;;;;;;6.30;3.83;;;;;;;10.83;100.00;99742.97;4887231;29;20383;-77
2022/09/26 10:09:40;;;;;;;5.60;3.50;;;;;;;10.84;100.00;99744.72;4879715;29;20044;-78
2022/09/26 10:12:31;;;;;;;7.10;4.00;;;;;;;10.86;100.00;99742.06;4861078;29;20260;-77
2022/09/26 10:15:26;;;;;;;5.88;3.50;;;;;;;10.87;100.00;99734.13;4895446;29;20052;-77
2022/09/26 10:18:17;;;;;;;8.60;4.15;;;;;;;10.90;100.00;99727.94;4883355;29;20074;-77
2022/09/26 10:21:16;;;;;;;;;;;;;;;10.94;100.00;99721.72;4861119;29;20548;-76
2022/09/26 10:23:48;;;;;;;4.22;3.75;;;;;;;10.98;100.00;99718.13;4898901;29;19934;-77
2022/09/26 10:26:35;;;;;;;6.05;4.25;;;;;;;11.03;100.00;99720.69;4863274;29;20218;-77
2022/09/26 10:29:32;;;;;;;5.85;4.03;;;;;;;11.05;100.00;99718.91;4878679;29;20055;-76
2022/09/26 10:32:02;;;;;;;7.80;4.60;;;;;;;11.10;100.00;99704.75;4886608;29;20043;-77
2022/09/26 10:34:34;;;;;;;8.60;4.32;;;;;;;11.11;100.00;99701.22;4881530;29;20048;-78
2022/09/26 10:37:28;;;;;;;5.18;4.03;;;;;;;11.13;100.00;99701.19;4873779;29;20044;-78
2022/09/26 10:43:29;;;;;;;11.80;4.25;;;;;;;11.11;100.00;99697.69;4861494;29;20067;-78
2022/09/26 10:46:15;;;;;;;12.00;4.60;;;;;;;11.10;100.00;99690.69;4887336;29;20040;-78
2022/09/26 10:49:22;;;;;;;7.88;4.60;;;;;;;11.11;100.00;99684.50;4859472;29;20041;-77
2022/09/26 10:52:18;;;;;;;5.88;4.40;;;;;;;11.12;100.00;99692.41;4873260;29;20056;-77
2022/09/26 10:54:57;;;;;;;9.45;4.65;;;;;;;11.19;100.00;99685.28;4893594;29;20048;-76
2022/09/26 10:57:36;;;;;;;9.73;4.55;;;;;;;11.25;100.00;99682.50;4866826;29;20147;-78
2022/09/26 11:00:07;;;;;;;9.50;4.78;;;;;;;11.30;100.00;99679.78;4892863;29;20049;-77
2022/09/26 11:02:37;;;;;;;;;;;;;;;11.34;100.00;99676.19;4885764;29;20346;-77
2022/09/26 11:08:13;;;;;;;7.47;4.70;;;;;;;11.51;100.00;99684.66;4876947;29;20053;-78
2022/09/26 11:11:12;;;;;;;7.68;4.47;;;;;;;11.56;100.00;99671.38;4878358;29;20048;-78
2022/09/26 11:14:02;;;;;;;5.57;4.20;;;;;;;11.59;100.00;99675.75;4864142;29;20262;-78
2022/09/26 11:16:43;;;;;;;6.38;4.22;;;;;;;11.60;100.00;99673.03;4857211;29;20533;-78
2022/09/26 11:19:43;;;;;;;5.18;4.07;;;;;;;11.58;100.00;99674.84;4868443;29;20045;-78
2022/09/26 11:22:31;;;;;;;5.80;4.28;;;;;;;11.57;100.00;99670.50;4877578;29;20052;-78
2022/09/26 11:25:13;;;;;;;7.40;4.38;;;;;;;11.56;100.00;99675.78;4897117;29;20051;-78
2022/09/26 11:28:11;;;;;;;9.45;4.50;;;;;;;11.51;100.00;99666.19;4909612;29;20275;-78
2022/09/26 11:31:05;;;;;;;5.25;4.50;;;;;;;11.48;100.00;99660.97;4903123;29;20060;-78
2022/09/26 11:33:44;;;;;;;10.07;4.15;;;;;;;11.45;100.00;99670.72;4886419;29;20036;-78
2022/09/26 11:37:00;;;;;;;10.55;4.80;;;;;;;11.35;100.00;99662.09;4873626;29;20036;-78
2022/09/26 11:39:51;;;;;;;8.50;4.60;;;;;;;11.35;100.00;99656.84;4893833;29;20118;-77
2022/09/26 11:42:20;;;;;;;11.70;5.07;;;;;;;11.38;100.00;99650.63;4886270;29;20259;-77
2022/09/26 11:44:58;;;;;;;5.45;4.95;;;;;;;11.35;100.00;99646.28;4857654;29;20044;-79
2022/09/26 11:48:16;;;;;;;11.50;4.78;;;;;;;11.33;100.00;99627.00;4897104;29;20405;-79
2022/09/26 11:51:36;;;;;;;6.95;4.82;;;;;;;11.30;100.00;99633.19;4896685;29;20063;-77
2022/09/26 11:54:23;;;;;;;5.05;4.15;;;;;;;11.25;100.00;99626.28;4849467;29;20437;-78
2022/09/26 11:57:33;;;;;;;4.97;4.40;;;;;;;11.22;100.00;99631.59;4904598;29;20051;-78
2022/09/26 12:00:26;;;;;;;10.18;4.70;;;;;;;11.18;100.00;99633.41;4825247;29;20056;-77
2022/09/26 12:03:22;;;;;;;6.57;4.38;;;;;;;11.19;100.00;99629.91;4891820;29;20370;-77
2022/09/26 12:06:21;;;;;;;4.43;4.03;;;;;;;11.19;100.00;99629.00;4899583;29;20052;-77
2022/09/26 12:09:20;;;;;;;4.47;3.88;;;;;;;11.20;100.00;99614.94;4903833;29;20048;-79
2022/09/26 12:12:16;;;;;;;4.38;3.97;;;;;;;11.20;100.00;99615.78;4885747;29;20052;-78
2022/09/26 12:15:01;;;;;;;4.32;3.92;;;;;;;11.19;100.00;99611.44;4887014;29;20052;-78
2022/09/26 12:17:58;;;;;;;6.18;4.30;;;;;;;11.19;100.00;99611.44;4887183;29;20044;-76
2022/09/26 12:20:45;;;;;;;4.32;3.80;;;;;;;11.20;100.00;99610.53;4883610;29;20345;-77
2022/09/26 12:23:34;;;;;;;4.30;3.90;;;;;;;11.22;100.00;99608.72;4883287;29;20398;-77
2022/09/26 12:26:43;;;;;;;3.58;3.28;;;;;;;11.20;100.00;99605.25;4885751;29;20043;-78
2022/09/26 12:29:32;;;;;;;4.75;3.05;;;;;;;11.18;100.00;99607.06;4867329;29;20047;-77
2022/09/26 12:32:13;;;;;;;5.00;3.75;;;;;;;11.19;100.00;99592.97;4856273;29;20397;-77
2022/09/26 12:35:00;;;;;;;7.28;5.25;;;;;;;11.22;100.00;99582.34;4898349;29;20335;-78
2022/09/26 12:38:10;;;;;;;6.55;3.80;;;;;;;11.21;100.00;99591.19;4879244;29;20756;-78
2022/09/26 12:40:41;;;;;;;5.88;4.15;;;;;;;11.23;100.00;99589.38;4863778;29;20218;-77
2022/09/26 12:43:36;;;;;;;4.32;3.92;;;;;;;11.26;100.00;99577.88;4894511;29;20048;-78